sensor_id;sensor_type;location;lat;lon;timestamp;pressure;altitude;pressure_sealevel;temperature;humidity
71344;BME280;59146;43.850;25.948;2022-10-23T00:00:54;101129.19;;;13.11;55.85
71344;BME280;59146;43.850;25.948;2022-10-23T00:03:19;101206.31;;;13.51;55.67
71344;BME280;59146;43.850;25.948;2022-10-23T00:05:45;101194.91;;;13.38;56.07
71344;BME280;59146;43.850;25.948;2022-10-23T00:08:10;101175.41;;;13.28;56.56
71344;BME280;59146;43.850;25.948;2022-10-23T00:10:39;101057.22;;;12.45;56.72
71344;BME280;59146;43.850;25.948;2022-10-23T00:13:06;101045.59;;;12.35;56.52
71344;BME280;59146;43.850;25.948;2022-10-23T00:15:33;101193.47;;;13.32;56.56
71344;BME280;59146;43.850;25.948;2022-10-23T00:17:59;101268.09;;;13.71;56.85
71344;BME280;59146;43.850;25.948;2022-10-23T00:20:24;101196.41;;;13.28;57.20
71344;BME280;59146;43.850;25.948;2022-10-23T00:22:50;101202.09;;;13.34;57.16
71344;BME280;59146;43.850;25.948;2022-10-23T00:25:15;101252.91;;;13.47;57.66
71344;BME280;59146;43.850;25.948;2022-10-23T00:27:42;101252.44;;;13.41;58.31
71344;BME280;59146;43.850;25.948;2022-10-23T00:30:08;101222.53;;;13.15;58.95
71344;BME280;59146;43.850;25.948;2022-10-23T00:32:34;101230.03;;;13.21;58.56
71344;BME280;59146;43.850;25.948;2022-10-23T00:34:59;101229.72;;;13.12;59.05
71344;BME280;59146;43.850;25.948;2022-10-23T00:37:25;101161.09;;;12.75;59.22
71344;BME280;59146;43.850;25.948;2022-10-23T00:39:50;101203.19;;;13.02;59.15
71344;BME280;59146;43.850;25.948;2022-10-23T00:42:17;101110.94;;;12.38;59.18
71344;BME280;59146;43.850;25.948;2022-10-23T00:47:09;101187.97;;;12.79;59.23
71344;BME280;59146;43.850;25.948;2022-10-23T00:49:35;101209.59;;;12.83;59.65
71344;BME280;59146;43.850;25.948;2022-10-23T00:52:02;101124.34;;;12.32;60.33
71344;BME280;59146;43.850;25.948;2022-10-23T00:54:33;101189.81;;;12.77;60.05
71344;BME280;59146;43.850;25.948;2022-10-23T00:57:00;101253.16;;;13.15;60.44
71344;BME280;59146;43.850;25.948;2022-10-23T00:59:27;101259.25;;;13.00;60.87
71344;BME280;59146;43.850;25.948;2022-10-23T01:01:53;101167.97;;;12.17;61.70
71344;BME280;59146;43.850;25.948;2022-10-23T01:04:18;101262.22;;;12.64;61.67
71344;BME280;59146;43.850;25.948;2022-10-23T01:09:21;101170.59;;;12.17;61.34
71344;BME280;59146;43.850;25.948;2022-10-23T01:12:01;101202.78;;;12.35;61.99
71344;BME280;59146;43.850;25.948;2022-10-23T01:14:49;101246.00;;;12.57;61.27
71344;BME280;59146;43.850;25.948;2022-10-23T01:17:29;101054.53;;;11.56;61.75
71344;BME280;59146;43.850;25.948;2022-10-23T01:23:12;101269.31;;;12.77;63.67
71344;BME280;59146;43.850;25.948;2022-10-23T01:28:30;101198.38;;;12.35;64.97
71344;BME280;59146;43.850;25.948;2022-10-23T01:30:59;101177.28;;;12.23;65.33
71344;BME280;59146;43.850;25.948;2022-10-23T01:33:41;101210.78;;;12.32;65.58
71344;BME280;59146;43.850;25.948;2022-10-23T01:36:14;101265.31;;;12.56;66.30
71344;BME280;59146;43.850;25.948;2022-10-23T01:38:55;101199.50;;;12.16;66.28
71344;BME280;59146;43.850;25.948;2022-10-23T01:44:03;101274.75;;;12.59;66.37
71344;BME280;59146;43.850;25.948;2022-10-23T01:46:32;101192.16;;;11.91;66.83
71344;BME280;59146;43.850;25.948;2022-10-23T01:49:01;101190.47;;;11.90;67.08
71344;BME280;59146;43.850;25.948;2022-10-23T01:51:28;101207.63;;;11.95;67.01
71344;BME280;59146;43.850;25.948;2022-10-23T01:53:57;101259.91;;;12.28;67.14
71344;BME280;59146;43.850;25.948;2022-10-23T01:56:32;101178.97;;;11.92;67.22
71344;BME280;59146;43.850;25.948;2022-10-23T01:59:01;101266.81;;;12.45;66.93
71344;BME280;59146;43.850;25.948;2022-10-23T02:01:29;101157.75;;;11.66;66.89
71344;BME280;59146;43.850;25.948;2022-10-23T02:03:56;101150.22;;;11.77;66.21
71344;BME280;59146;43.850;25.948;2022-10-23T02:06:22;101175.78;;;11.87;66.43
71344;BME280;59146;43.850;25.948;2022-10-23T02:08:48;101192.91;;;12.09;66.02
71344;BME280;59146;43.850;25.948;2022-10-23T02:11:16;101207.91;;;12.36;64.71
71344;BME280;59146;43.850;25.948;2022-10-23T02:22:02;101222.53;;;12.86;63.36
71344;BME280;59146;43.850;25.948;2022-10-23T02:24:38;101255.50;;;13.19;62.77
71344;BME280;59146;43.850;25.948;2022-10-23T02:27:12;101245.56;;;13.10;62.37
71344;BME280;59146;43.850;25.948;2022-10-23T02:29:45;101219.41;;;12.79;63.01
71344;BME280;59146;43.850;25.948;2022-10-23T02:32:13;101193.06;;;12.66;62.94
71344;BME280;59146;43.850;25.948;2022-10-23T02:34:40;101275.75;;;13.17;63.35
71344;BME280;59146;43.850;25.948;2022-10-23T02:37:05;101332.09;;;13.40;64.09
71344;BME280;59146;43.850;25.948;2022-10-23T02:39:31;101222.13;;;12.77;64.85
71344;BME280;59146;43.850;25.948;2022-10-23T02:42:05;101229.16;;;12.77;65.32
71344;BME280;59146;43.850;25.948;2022-10-23T02:47:29;101327.50;;;13.29;64.02
71344;BME280;59146;43.850;25.948;2022-10-23T02:52:30;101337.59;;;13.21;63.32
71344;BME280;59146;43.850;25.948;2022-10-23T02:57:56;101250.34;;;12.58;63.78
71344;BME280;59146;43.850;25.948;2022-10-23T03:00:27;101244.50;;;12.53;63.12
71344;BME280;59146;43.850;25.948;2022-10-23T03:02:57;101263.66;;;12.69;62.78
71344;BME280;59146;43.850;25.948;2022-10-23T03:05:28;101151.09;;;12.07;62.44
71344;BME280;59146;43.850;25.948;2022-10-23T03:07:55;101153.47;;;12.12;62.74
71344;BME280;59146;43.850;25.948;2022-10-23T03:10:21;101239.03;;;12.72;62.55
71344;BME280;59146;43.850;25.948;2022-10-23T03:12:46;101269.31;;;12.77;63.04
71344;BME280;59146;43.850;25.948;2022-10-23T03:15:14;101278.16;;;12.91;63.39
71344;BME280;59146;43.850;25.948;2022-10-23T03:17:40;101243.88;;;12.80;62.68
71344;BME280;59146;43.850;25.948;2022-10-23T03:20:07;101305.41;;;13.18;62.33
71344;BME280;59146;43.850;25.948;2022-10-23T03:22:32;101244.25;;;12.88;62.40
71344;BME280;59146;43.850;25.948;2022-10-23T03:24:58;101268.63;;;13.04;62.26
71344;BME280;59146;43.850;25.948;2022-10-23T03:27:23;101267.88;;;13.17;62.10
71344;BME280;59146;43.850;25.948;2022-10-23T03:29:49;101278.19;;;13.34;61.79
71344;BME280;59146;43.850;25.948;2022-10-23T03:32:15;101255.78;;;13.29;60.74
71344;BME280;59146;43.850;25.948;2022-10-23T03:34:41;101298.47;;;13.46;60.70
71344;BME280;59146;43.850;25.948;2022-10-23T03:37:06;101255.31;;;13.36;59.91
71344;BME280;59146;43.850;25.948;2022-10-23T03:39:32;101184.59;;;12.91;59.53
71344;BME280;59146;43.850;25.948;2022-10-23T03:41:57;101256.75;;;13.42;58.96
71344;BME280;59146;43.850;25.948;2022-10-23T03:44:22;101314.59;;;13.83;58.97
71344;BME280;59146;43.850;25.948;2022-10-23T03:46:48;101261.91;;;13.57;58.65
71344;BME280;59146;43.850;25.948;2022-10-23T03:49:13;101246.53;;;13.51;58.50
71344;BME280;59146;43.850;25.948;2022-10-23T03:51:39;101283.38;;;13.78;58.84
71344;BME280;59146;43.850;25.948;2022-10-23T03:54:06;101121.28;;;12.83;58.08
71344;BME280;59146;43.850;25.948;2022-10-23T03:56:32;101292.88;;;13.95;57.53
71344;BME280;59146;43.850;25.948;2022-10-23T03:58:57;101306.75;;;13.97;57.80
71344;BME280;59146;43.850;25.948;2022-10-23T04:01:23;101362.28;;;14.33;57.89
71344;BME280;59146;43.850;25.948;2022-10-23T04:03:48;101315.47;;;14.11;57.95
71344;BME280;59146;43.850;25.948;2022-10-23T04:06:14;101317.97;;;14.13;57.46
71344;BME280;59146;43.850;25.948;2022-10-23T04:08:42;101275.13;;;13.98;57.20
71344;BME280;59146;43.850;25.948;2022-10-23T04:11:07;101271.66;;;13.98;57.12
71344;BME280;59146;43.850;25.948;2022-10-23T04:13:33;101247.81;;;13.87;56.75
71344;BME280;59146;43.850;25.948;2022-10-23T04:15:58;101317.31;;;14.38;56.58
71344;BME280;59146;43.850;25.948;2022-10-23T04:18:23;101310.56;;;14.33;56.86
71344;BME280;59146;43.850;25.948;2022-10-23T04:20:50;101331.66;;;14.46;57.31
71344;BME280;59146;43.850;25.948;2022-10-23T04:23:16;101262.91;;;14.11;57.05
71344;BME280;59146;43.850;25.948;2022-10-23T04:25:42;101263.22;;;13.93;56.99
71344;BME280;59146;43.850;25.948;2022-10-23T04:28:08;101312.44;;;14.31;57.51
71344;BME280;59146;43.850;25.948;2022-10-23T04:30:33;101371.16;;;14.59;57.64
71344;BME280;59146;43.850;25.948;2022-10-23T04:32:59;101354.00;;;14.53;57.59
71344;BME280;59146;43.850;25.948;2022-10-23T04:35:24;101331.19;;;14.40;57.97
71344;BME280;59146;43.850;25.948;2022-10-23T04:37:49;101322.66;;;14.36;57.70
71344;BME280;59146;43.850;25.948;2022-10-23T04:40:15;101302.88;;;14.16;58.12
71344;BME280;59146;43.850;25.948;2022-10-23T04:42:41;101329.41;;;14.26;57.71
71344;BME280;59146;43.850;25.948;2022-10-23T04:45:06;101309.16;;;14.14;57.99
71344;BME280;59146;43.850;25.948;2022-10-23T04:47:32;101309.91;;;14.02;59.09
71344;BME280;59146;43.850;25.948;2022-10-23T04:49:57;101387.44;;;14.51;59.10
71344;BME280;59146;43.850;25.948;2022-10-23T04:52:22;101172.28;;;13.07;59.11
71344;BME280;59146;43.850;25.948;2022-10-23T04:54:48;101364.72;;;14.36;59.48
71344;BME280;59146;43.850;25.948;2022-10-23T04:57:16;101347.25;;;14.35;58.98
71344;BME280;59146;43.850;25.948;2022-10-23T04:59:42;101233.31;;;13.67;59.07
71344;BME280;59146;43.850;25.948;2022-10-23T05:02:07;101347.25;;;14.49;58.90
71344;BME280;59146;43.850;25.948;2022-10-23T05:04:32;101291.88;;;14.10;59.29
71344;BME280;59146;43.850;25.948;2022-10-23T05:06:58;101351.47;;;14.38;59.44
71344;BME280;59146;43.850;25.948;2022-10-23T05:09:24;101381.78;;;14.57;59.74
71344;BME280;59146;43.850;25.948;2022-10-23T05:11:49;101229.28;;;13.47;60.25
71344;BME280;59146;43.850;25.948;2022-10-23T05:14:14;101339.94;;;14.26;60.30
71344;BME280;59146;43.850;25.948;2022-10-23T05:17:05;101332.63;;;14.17;60.82
71344;BME280;59146;43.850;25.948;2022-10-23T05:19:36;101318.47;;;14.05;60.98
71344;BME280;59146;43.850;25.948;2022-10-23T05:22:04;101368.94;;;14.39;61.57
71344;BME280;59146;43.850;25.948;2022-10-23T05:24:30;101373.53;;;14.49;61.81
71344;BME280;59146;43.850;25.948;2022-10-23T05:26:56;101370.75;;;14.65;61.52
71344;BME280;59146;43.850;25.948;2022-10-23T05:29:21;101363.59;;;15.07;60.38
71344;BME280;59146;43.850;25.948;2022-10-23T05:31:49;101416.44;;;15.83;59.12
71344;BME280;59146;43.850;25.948;2022-10-23T05:34:18;101364.38;;;15.99;57.96
71344;BME280;59146;43.850;25.948;2022-10-23T05:36:44;101361.56;;;16.38;56.17
71344;BME280;59146;43.850;25.948;2022-10-23T05:39:11;101367.47;;;16.54;55.95
71344;BME280;59146;43.850;25.948;2022-10-23T05:41:36;101438.53;;;17.28;54.97
71344;BME280;59146;43.850;25.948;2022-10-23T05:44:02;101438.34;;;17.55;54.36
71344;BME280;59146;43.850;25.948;2022-10-23T05:46:27;101378.06;;;17.25;54.00
71344;BME280;59146;43.850;25.948;2022-10-23T05:48:53;101460.44;;;17.18;55.57
71344;BME280;59146;43.850;25.948;2022-10-23T05:51:19;101486.09;;;17.52;54.94
71344;BME280;59146;43.850;25.948;2022-10-23T05:53:51;101471.19;;;17.75;54.78
71344;BME280;59146;43.850;25.948;2022-10-23T05:56:17;101412.91;;;17.65;53.61
71344;BME280;59146;43.850;25.948;2022-10-23T05:58:42;101484.00;;;18.14;53.58
71344;BME280;59146;43.850;25.948;2022-10-23T06:01:10;101516.81;;;18.90;52.00
71344;BME280;59146;43.850;25.948;2022-10-23T06:03:37;101454.72;;;18.28;52.31
71344;BME280;59146;43.850;25.948;2022-10-23T06:06:04;101432.72;;;18.05;52.44
71344;BME280;59146;43.850;25.948;2022-10-23T06:08:30;101459.59;;;17.99;53.60
71344;BME280;59146;43.850;25.948;2022-10-23T06:10:56;101479.06;;;18.55;52.81
71344;BME280;59146;43.850;25.948;2022-10-23T06:13:21;101521.94;;;19.36;51.55
71344;BME280;59146;43.850;25.948;2022-10-23T06:15:47;101452.84;;;18.74;51.58
71344;BME280;59146;43.850;25.948;2022-10-23T06:18:12;101458.16;;;19.06;51.05
71344;BME280;59146;43.850;25.948;2022-10-23T06:20:38;101508.94;;;19.33;51.37
71344;BME280;59146;43.850;25.948;2022-10-23T06:23:04;101441.88;;;18.68;51.69
71344;BME280;59146;43.850;25.948;2022-10-23T06:25:30;101543.59;;;19.30;51.89
71344;BME280;59146;43.850;25.948;2022-10-23T06:27:56;101513.19;;;19.56;51.12
71344;BME280;59146;43.850;25.948;2022-10-23T06:30:21;101479.75;;;19.44;50.36
71344;BME280;59146;43.850;25.948;2022-10-23T06:32:46;101470.16;;;19.32;51.47
71344;BME280;59146;43.850;25.948;2022-10-23T06:35:12;101502.03;;;19.42;51.61
71344;BME280;59146;43.850;25.948;2022-10-23T06:37:37;101472.09;;;19.30;51.87
71344;BME280;59146;43.850;25.948;2022-10-23T06:40:03;101518.91;;;19.52;51.74
71344;BME280;59146;43.850;25.948;2022-10-23T06:42:29;101518.81;;;19.74;51.50
71344;BME280;59146;43.850;25.948;2022-10-23T06:44:55;101505.06;;;20.01;50.28
71344;BME280;59146;43.850;25.948;2022-10-23T06:47:20;101561.69;;;19.36;53.17
71344;BME280;59146;43.850;25.948;2022-10-23T06:49:46;101446.78;;;18.39;54.84
71344;BME280;59146;43.850;25.948;2022-10-23T06:52:11;101583.66;;;19.70;53.26
71344;BME280;59146;43.850;25.948;2022-10-23T06:54:36;101575.88;;;19.46;53.90
71344;BME280;59146;43.850;25.948;2022-10-23T06:57:02;101562.88;;;19.32;54.39
71344;BME280;59146;43.850;25.948;2022-10-23T06:59:27;101551.22;;;19.35;53.30
71344;BME280;59146;43.850;25.948;2022-10-23T07:01:53;101414.22;;;18.50;54.26
71344;BME280;59146;43.850;25.948;2022-10-23T07:04:18;101533.16;;;19.07;54.50
71344;BME280;59146;43.850;25.948;2022-10-23T07:06:44;101606.19;;;19.64;54.07
71344;BME280;59146;43.850;25.948;2022-10-23T07:09:09;101479.91;;;18.56;55.12
71344;BME280;59146;43.850;25.948;2022-10-23T07:11:36;101567.81;;;19.15;55.39
71344;BME280;59146;43.850;25.948;2022-10-23T07:14:01;101529.19;;;18.57;55.72
71344;BME280;59146;43.850;25.948;2022-10-23T07:16:26;101539.53;;;18.71;55.59
71344;BME280;59146;43.850;25.948;2022-10-23T07:18:54;101584.56;;;18.82;57.22
71344;BME280;59146;43.850;25.948;2022-10-23T07:21:29;101575.63;;;18.61;56.72
71344;BME280;59146;43.850;25.948;2022-10-23T07:23:56;101506.38;;;18.21;56.71
71344;BME280;59146;43.850;25.948;2022-10-23T07:26:21;101589.38;;;18.42;57.75
71344;BME280;59146;43.850;25.948;2022-10-23T07:28:47;101551.00;;;18.25;58.29
71344;BME280;59146;43.850;25.948;2022-10-23T07:31:13;101584.31;;;18.28;58.95
71344;BME280;59146;43.850;25.948;2022-10-23T07:33:39;101425.13;;;17.55;57.63
71344;BME280;59146;43.850;25.948;2022-10-23T07:36:06;101588.81;;;18.50;57.83
71344;BME280;59146;43.850;25.948;2022-10-23T07:38:32;101577.84;;;18.32;58.43
71344;BME280;59146;43.850;25.948;2022-10-23T07:41:00;101570.03;;;18.31;58.16
71344;BME280;59146;43.850;25.948;2022-10-23T07:43:29;101573.00;;;18.26;57.71
71344;BME280;59146;43.850;25.948;2022-10-23T07:46:03;101581.53;;;18.30;58.53
71344;BME280;59146;43.850;25.948;2022-10-23T07:48:29;101401.28;;;17.44;57.02
71344;BME280;59146;43.850;25.948;2022-10-23T07:51:00;101613.78;;;18.69;56.76
71344;BME280;59146;43.850;25.948;2022-10-23T07:53:26;101596.22;;;18.68;56.81
71344;BME280;59146;43.850;25.948;2022-10-23T07:55:56;101524.41;;;18.16;57.13
71344;BME280;59146;43.850;25.948;2022-10-23T07:58:23;101423.13;;;17.46;56.60
71344;BME280;59146;43.850;25.948;2022-10-23T08:00:59;101441.00;;;17.66;57.04
71344;BME280;59146;43.850;25.948;2022-10-23T08:03:31;101609.22;;;18.82;56.35
71344;BME280;59146;43.850;25.948;2022-10-23T08:05:57;101566.72;;;18.51;56.33
71344;BME280;59146;43.850;25.948;2022-10-23T08:08:24;101550.25;;;18.47;56.43
71344;BME280;59146;43.850;25.948;2022-10-23T08:10:52;101502.69;;;18.23;55.82
71344;BME280;59146;43.850;25.948;2022-10-23T08:13:17;101492.59;;;18.40;55.99
71344;BME280;59146;43.850;25.948;2022-10-23T08:15:47;101626.44;;;19.21;54.99
71344;BME280;59146;43.850;25.948;2022-10-23T08:18:14;101645.69;;;19.23;55.18
71344;BME280;59146;43.850;25.948;2022-10-23T08:20:44;101444.94;;;18.06;55.27
71344;BME280;59146;43.850;25.948;2022-10-23T08:23:11;101603.56;;;19.20;55.17
71344;BME280;59146;43.850;25.948;2022-10-23T08:25:38;101562.19;;;19.08;55.06
71344;BME280;59146;43.850;25.948;2022-10-23T08:28:05;101614.31;;;19.41;54.81
71344;BME280;59146;43.850;25.948;2022-10-23T08:30:30;101547.97;;;19.20;54.52
71344;BME280;59146;43.850;25.948;2022-10-23T08:32:56;101612.22;;;19.66;53.29
71344;BME280;59146;43.850;25.948;2022-10-23T08:35:21;101392.56;;;18.22;53.55
71344;BME280;59146;43.850;25.948;2022-10-23T08:37:46;101543.84;;;19.38;53.03
71344;BME280;59146;43.850;25.948;2022-10-23T08:40:14;101600.03;;;19.75;52.42
71344;BME280;59146;43.850;25.948;2022-10-23T08:42:41;101577.19;;;19.83;52.25
71344;BME280;59146;43.850;25.948;2022-10-23T08:47:54;101568.59;;;19.70;52.32
71344;BME280;59146;43.850;25.948;2022-10-23T08:50:34;101634.09;;;20.22;51.74
71344;BME280;59146;43.850;25.948;2022-10-23T08:53:21;101624.44;;;20.21;51.47
71344;BME280;59146;43.850;25.948;2022-10-23T08:58:51;101595.50;;;20.18;50.74
71344;BME280;59146;43.850;25.948;2022-10-23T09:01:39;101616.00;;;20.48;50.71
71344;BME280;59146;43.850;25.948;2022-10-23T09:04:09;101595.34;;;20.31;50.12
71344;BME280;59146;43.850;25.948;2022-10-23T09:06:49;101546.19;;;20.16;49.90
71344;BME280;59146;43.850;25.948;2022-10-23T09:12:29;101579.75;;;20.37;49.47
71344;BME280;59146;43.850;25.948;2022-10-23T09:15:17;101628.22;;;20.81;49.28
71344;BME280;59146;43.850;25.948;2022-10-23T09:17:44;101543.31;;;20.39;48.36
71344;BME280;59146;43.850;25.948;2022-10-23T09:22:52;101528.53;;;20.46;48.75
71344;BME280;59146;43.850;25.948;2022-10-23T09:25:27;101551.22;;;20.50;48.61
71344;BME280;59146;43.850;25.948;2022-10-23T09:27:56;101605.28;;;21.00;49.42
71344;BME280;59146;43.850;25.948;2022-10-23T09:30:40;101531.19;;;20.67;47.89
71344;BME280;59146;43.850;25.948;2022-10-23T09:35:49;101573.16;;;21.03;47.44
71344;BME280;59146;43.850;25.948;2022-10-23T09:38:31;101563.50;;;21.02;47.46
71344;BME280;59146;43.850;25.948;2022-10-23T09:41:01;101541.53;;;21.00;46.81
71344;BME280;59146;43.850;25.948;2022-10-23T09:43:27;101534.72;;;21.07;46.80
71344;BME280;59146;43.850;25.948;2022-10-23T09:45:59;101555.31;;;21.24;46.05
71344;BME280;59146;43.850;25.948;2022-10-23T09:48:25;101488.44;;;20.70;46.63
71344;BME280;59146;43.850;25.948;2022-10-23T09:51:00;101542.25;;;21.02;45.99
71344;BME280;59146;43.850;25.948;2022-10-23T09:53:36;101474.50;;;20.78;46.17
71344;BME280;59146;43.850;25.948;2022-10-23T09:56:19;101597.19;;;21.51;45.94
71344;BME280;59146;43.850;25.948;2022-10-23T10:01:49;101526.28;;;21.42;46.16
71344;BME280;59146;43.850;25.948;2022-10-23T10:04:15;101487.34;;;21.12;45.90
71344;BME280;59146;43.850;25.948;2022-10-23T10:06:41;101494.78;;;21.38;45.20
71344;BME280;59146;43.850;25.948;2022-10-23T10:09:15;101480.41;;;21.40;44.58
71344;BME280;59146;43.850;25.948;2022-10-23T10:11:48;101505.16;;;21.41;44.81
71344;BME280;59146;43.850;25.948;2022-10-23T10:14:37;101580.22;;;21.92;44.44
71344;BME280;59146;43.850;25.948;2022-10-23T10:23:44;101491.47;;;21.93;42.78
71344;BME280;59146;43.850;25.948;2022-10-23T10:26:44;101548.28;;;22.30;42.46
71344;BME280;59146;43.850;25.948;2022-10-23T10:40:22;101539.31;;;22.87;41.21
71344;BME280;59146;43.850;25.948;2022-10-23T10:46:35;101556.25;;;22.96;40.50
71344;BME280;59146;43.850;25.948;2022-10-23T10:48:48;101463.31;;;22.46;39.49
71344;BME280;59146;43.850;25.948;2022-10-23T10:54:42;101514.34;;;22.88;39.40
71344;BME280;59146;43.850;25.948;2022-10-23T10:57:33;101474.28;;;22.43;39.05
71344;BME280;59146;43.850;25.948;2022-10-23T11:02:42;101373.13;;;22.16;38.36
71344;BME280;59146;43.850;25.948;2022-10-23T11:10:27;101514.16;;;23.17;38.12
71344;BME280;59146;43.850;25.948;2022-10-23T11:12:53;101476.84;;;22.99;37.81
71344;BME280;59146;43.850;25.948;2022-10-23T11:15:34;101461.47;;;22.93;37.75
71344;BME280;59146;43.850;25.948;2022-10-23T11:18:09;101451.44;;;22.77;37.54
71344;BME280;59146;43.850;25.948;2022-10-23T11:34:53;101527.66;;;23.42;37.71
71344;BME280;59146;43.850;25.948;2022-10-23T11:37:23;101365.22;;;22.51;37.90
71344;BME280;59146;43.850;25.948;2022-10-23T11:48:03;101516.75;;;23.36;37.07
71344;BME280;59146;43.850;25.948;2022-10-23T11:50:50;101513.28;;;23.26;37.03
71344;BME280;59146;43.850;25.948;2022-10-23T11:58:49;101499.09;;;23.25;36.72
71344;BME280;59146;43.850;25.948;2022-10-23T12:03:52;101505.94;;;23.55;36.66
71344;BME280;59146;43.850;25.948;2022-10-23T12:06:28;101515.25;;;23.51;36.48
71344;BME280;59146;43.850;25.948;2022-10-23T12:09:04;101468.25;;;23.32;36.71
71344;BME280;59146;43.850;25.948;2022-10-23T12:20:01;101494.38;;;23.64;36.67
71344;BME280;59146;43.850;25.948;2022-10-23T12:22:46;101452.94;;;23.52;36.42
71344;BME280;59146;43.850;25.948;2022-10-23T12:33:40;101482.97;;;23.54;36.41
71344;BME280;59146;43.850;25.948;2022-10-23T12:39:26;101498.25;;;23.69;35.97
71344;BME280;59146;43.850;25.948;2022-10-23T12:41:52;101441.63;;;23.23;36.82
71344;BME280;59146;43.850;25.948;2022-10-23T12:44:18;101469.56;;;23.46;36.04
71344;BME280;59146;43.850;25.948;2022-10-23T12:46:53;101476.31;;;23.58;36.34
71344;BME280;59146;43.850;25.948;2022-10-23T12:49:25;101455.81;;;23.41;36.14
71344;BME280;59146;43.850;25.948;2022-10-23T12:54:24;101509.53;;;23.81;36.07
71344;BME280;59146;43.850;25.948;2022-10-23T12:56:50;101452.31;;;23.58;36.59
71344;BME280;59146;43.850;25.948;2022-10-23T12:59:20;101396.78;;;23.18;36.19
71344;BME280;59146;43.850;25.948;2022-10-23T13:01:48;101422.13;;;23.22;36.79
71344;BME280;59146;43.850;25.948;2022-10-23T13:04:29;101356.94;;;22.81;36.07
71344;BME280;59146;43.850;25.948;2022-10-23T13:06:57;101490.69;;;23.65;37.12
71344;BME280;59146;43.850;25.948;2022-10-23T13:09:35;101411.16;;;23.08;36.81
71344;BME280;59146;43.850;25.948;2022-10-23T13:12:04;101424.84;;;23.13;36.25
71344;BME280;59146;43.850;25.948;2022-10-23T13:14:52;101483.34;;;23.41;36.24
71344;BME280;59146;43.850;25.948;2022-10-23T13:17:18;101471.50;;;23.44;36.49
71344;BME280;59146;43.850;25.948;2022-10-23T13:19:43;101426.69;;;23.30;37.12
71344;BME280;59146;43.850;25.948;2022-10-23T13:22:27;101415.56;;;23.17;37.28
71344;BME280;59146;43.850;25.948;2022-10-23T13:24:52;101418.38;;;23.15;36.03
71344;BME280;59146;43.850;25.948;2022-10-23T13:27:36;101429.72;;;23.00;36.75
71344;BME280;59146;43.850;25.948;2022-10-23T13:30:02;101442.16;;;23.26;35.98
71344;BME280;59146;43.850;25.948;2022-10-23T13:32:29;101490.28;;;23.52;36.52
71344;BME280;59146;43.850;25.948;2022-10-23T13:34:55;101458.31;;;23.25;36.80
71344;BME280;59146;43.850;25.948;2022-10-23T13:37:26;101392.84;;;22.77;36.84
71344;BME280;59146;43.850;25.948;2022-10-23T13:40:16;101457.16;;;23.10;36.64
71344;BME280;59146;43.850;25.948;2022-10-23T13:42:47;101322.44;;;22.35;36.52
71344;BME280;59146;43.850;25.948;2022-10-23T13:45:17;101511.13;;;23.39;37.66
71344;BME280;59146;43.850;25.948;2022-10-23T13:47:43;101512.94;;;23.38;36.96
71344;BME280;59146;43.850;25.948;2022-10-23T13:50:09;101486.00;;;23.14;37.23
71344;BME280;59146;43.850;25.948;2022-10-23T13:52:35;101471.06;;;23.04;37.12
71344;BME280;59146;43.850;25.948;2022-10-23T13:55:01;101293.50;;;21.95;36.40
71344;BME280;59146;43.850;25.948;2022-10-23T13:57:26;101451.19;;;22.98;37.05
71344;BME280;59146;43.850;25.948;2022-10-23T13:59:52;101447.00;;;22.96;37.32
71344;BME280;59146;43.850;25.948;2022-10-23T14:02:20;101448.50;;;22.80;37.52
71344;BME280;59146;43.850;25.948;2022-10-23T14:04:48;101451.69;;;22.84;37.18
71344;BME280;59146;43.850;25.948;2022-10-23T14:07:13;101453.13;;;22.78;37.20
71344;BME280;59146;43.850;25.948;2022-10-23T14:09:39;101475.47;;;22.95;37.47
71344;BME280;59146;43.850;25.948;2022-10-23T14:12:04;101514.88;;;23.19;38.11
71344;BME280;59146;43.850;25.948;2022-10-23T14:14:30;101434.84;;;22.66;37.58
71344;BME280;59146;43.850;25.948;2022-10-23T14:16:55;101442.38;;;22.70;37.93
71344;BME280;59146;43.850;25.948;2022-10-23T14:19:21;101462.41;;;22.74;38.09
71344;BME280;59146;43.850;25.948;2022-10-23T14:21:46;101468.59;;;22.65;37.98
71344;BME280;59146;43.850;25.948;2022-10-23T14:24:11;101480.63;;;22.69;37.64
71344;BME280;59146;43.850;25.948;2022-10-23T14:26:39;101491.28;;;22.69;38.35
71344;BME280;59146;43.850;25.948;2022-10-23T14:29:05;101499.19;;;22.61;38.52
71344;BME280;59146;43.850;25.948;2022-10-23T14:31:30;101435.81;;;22.19;38.62
71344;BME280;59146;43.850;25.948;2022-10-23T14:33:57;101521.75;;;22.48;38.83
71344;BME280;59146;43.850;25.948;2022-10-23T14:36:25;101515.28;;;22.50;38.99
71344;BME280;59146;43.850;25.948;2022-10-23T14:38:55;101422.03;;;21.96;38.85
71344;BME280;59146;43.850;25.948;2022-10-23T14:41:20;101481.59;;;22.32;39.23
71344;BME280;59146;43.850;25.948;2022-10-23T14:43:46;101462.59;;;22.17;39.32
71344;BME280;59146;43.850;25.948;2022-10-23T14:46:13;101492.78;;;22.35;39.23
71344;BME280;59146;43.850;25.948;2022-10-23T14:48:42;101440.38;;;21.89;39.62
71344;BME280;59146;43.850;25.948;2022-10-23T14:51:23;101487.81;;;22.13;39.89
71344;BME280;59146;43.850;25.948;2022-10-23T14:53:54;101445.00;;;21.78;39.98
71344;BME280;59146;43.850;25.948;2022-10-23T14:56:20;101469.63;;;21.80;40.33
71344;BME280;59146;43.850;25.948;2022-10-23T14:58:46;101482.34;;;21.76;40.76
71344;BME280;59146;43.850;25.948;2022-10-23T15:01:11;101473.84;;;21.63;40.91